sensor_id;sensor_type;location;lat;lon;timestamp;P1;durP1;ratioP1;P2;durP2;ratioP2
56736;SDS011;42618;51.226;4.910;2023-07-13T00:01:54;4.07;;;0.73;;
56736;SDS011;42618;51.226;4.910;2023-07-13T00:04:22;3.92;;;0.90;;
56736;SDS011;42618;51.226;4.910;2023-07-13T00:06:51;2.38;;;0.77;;
56736;SDS011;42618;51.226;4.910;2023-07-13T00:09:19;2.47;;;0.47;;
56736;SDS011;42618;51.226;4.910;2023-07-13T00:11:50;5.60;;;0.50;;
56736;SDS011;42618;51.226;4.910;2023-07-13T00:14:18;4.97;;;1.20;;
56736;SDS011;42618;51.226;4.910;2023-07-13T00:16:46;3.33;;;1.10;;
56736;SDS011;42618;51.226;4.910;2023-07-13T00:19:13;8.48;;;1.08;;
56736;SDS011;42618;51.226;4.910;2023-07-13T00:21:40;4.47;;;0.60;;
56736;SDS011;42618;51.226;4.910;2023-07-13T00:24:09;3.55;;;0.73;;
56736;SDS011;42618;51.226;4.910;2023-07-13T00:26:42;5.32;;;0.65;;
56736;SDS011;42618;51.226;4.910;2023-07-13T00:29:12;4.78;;;1.10;;
56736;SDS011;42618;51.226;4.910;2023-07-13T00:31:40;3.97;;;0.90;;
56736;SDS011;42618;51.226;4.910;2023-07-13T00:34:07;5.95;;;1.10;;
56736;SDS011;42618;51.226;4.910;2023-07-13T00:36:34;4.30;;;0.90;;
56736;SDS011;42618;51.226;4.910;2023-07-13T00:39:00;6.22;;;0.98;;
56736;SDS011;42618;51.226;4.910;2023-07-13T00:41:28;8.85;;;1.08;;
56736;SDS011;42618;51.226;4.910;2023-07-13T00:43:55;5.28;;;0.85;;
56736;SDS011;42618;51.226;4.910;2023-07-13T00:46:23;6.00;;;1.10;;
56736;SDS011;42618;51.226;4.910;2023-07-13T00:48:56;9.13;;;1.00;;
56736;SDS011;42618;51.226;4.910;2023-07-13T00:51:28;5.97;;;0.88;;
56736;SDS011;42618;51.226;4.910;2023-07-13T00:53:59;6.45;;;0.70;;
56736;SDS011;42618;51.226;4.910;2023-07-13T00:56:29;4.82;;;0.77;;
56736;SDS011;42618;51.226;4.910;2023-07-13T00:58:59;7.78;;;1.08;;
56736;SDS011;42618;51.226;4.910;2023-07-13T01:03:54;4.97;;;1.00;;
56736;SDS011;42618;51.226;4.910;2023-07-13T01:06:20;3.53;;;1.10;;
56736;SDS011;42618;51.226;4.910;2023-07-13T01:08:47;5.95;;;0.88;;
56736;SDS011;42618;51.226;4.910;2023-07-13T01:11:18;6.83;;;0.80;;
56736;SDS011;42618;51.226;4.910;2023-07-13T01:13:48;6.25;;;1.23;;
56736;SDS011;42618;51.226;4.910;2023-07-13T01:16:19;7.88;;;1.45;;
56736;SDS011;42618;51.226;4.910;2023-07-13T01:18:50;10.13;;;1.00;;
56736;SDS011;42618;51.226;4.910;2023-07-13T01:21:17;2.40;;;0.60;;
56736;SDS011;42618;51.226;4.910;2023-07-13T01:26:13;4.80;;;0.80;;
56736;SDS011;42618;51.226;4.910;2023-07-13T01:28:40;7.82;;;1.02;;
56736;SDS011;42618;51.226;4.910;2023-07-13T01:31:07;5.82;;;1.33;;
56736;SDS011;42618;51.226;4.910;2023-07-13T01:36:02;2.28;;;0.70;;
56736;SDS011;42618;51.226;4.910;2023-07-13T01:38:29;8.93;;;1.35;;
56736;SDS011;42618;51.226;4.910;2023-07-13T01:40:56;3.47;;;0.73;;
56736;SDS011;42618;51.226;4.910;2023-07-13T01:45:51;5.95;;;0.73;;
56736;SDS011;42618;51.226;4.910;2023-07-13T01:48:18;7.00;;;0.83;;
56736;SDS011;42618;51.226;4.910;2023-07-13T01:50:47;4.80;;;0.80;;
56736;SDS011;42618;51.226;4.910;2023-07-13T01:53:14;10.83;;;1.73;;
56736;SDS011;42618;51.226;4.910;2023-07-13T01:55:41;5.63;;;1.00;;
56736;SDS011;42618;51.226;4.910;2023-07-13T01:58:08;7.03;;;1.00;;
56736;SDS011;42618;51.226;4.910;2023-07-13T02:00:34;5.90;;;1.00;;
56736;SDS011;42618;51.226;4.910;2023-07-13T02:03:01;4.82;;;1.13;;
56736;SDS011;42618;51.226;4.910;2023-07-13T02:05:31;7.57;;;1.15;;
56736;SDS011;42618;51.226;4.910;2023-07-13T02:07:57;7.00;;;1.30;;
56736;SDS011;42618;51.226;4.910;2023-07-13T02:10:25;4.53;;;1.00;;
56736;SDS011;42618;51.226;4.910;2023-07-13T02:12:52;7.80;;;1.20;;
56736;SDS011;42618;51.226;4.910;2023-07-13T02:15:18;5.07;;;1.00;;
56736;SDS011;42618;51.226;4.910;2023-07-13T02:17:45;8.30;;;1.45;;
56736;SDS011;42618;51.226;4.910;2023-07-13T02:20:13;9.02;;;1.10;;
56736;SDS011;42618;51.226;4.910;2023-07-13T02:22:39;6.78;;;1.00;;
56736;SDS011;42618;51.226;4.910;2023-07-13T02:25:06;3.35;;;1.00;;
56736;SDS011;42618;51.226;4.910;2023-07-13T02:27:33;3.90;;;1.00;;
56736;SDS011;42618;51.226;4.910;2023-07-13T02:30:00;5.55;;;0.88;;
56736;SDS011;42618;51.226;4.910;2023-07-13T02:32:27;4.50;;;0.90;;
56736;SDS011;42618;51.226;4.910;2023-07-13T02:34:54;6.85;;;1.15;;
56736;SDS011;42618;51.226;4.910;2023-07-13T02:37:21;10.03;;;1.00;;
56736;SDS011;42618;51.226;4.910;2023-07-13T02:39:48;4.85;;;0.93;;
56736;SDS011;42618;51.226;4.910;2023-07-13T02:42:14;4.45;;;0.85;;
56736;SDS011;42618;51.226;4.910;2023-07-13T02:44:43;6.53;;;0.75;;
56736;SDS011;42618;51.226;4.910;2023-07-13T02:47:10;8.20;;;1.43;;
56736;SDS011;42618;51.226;4.910;2023-07-13T02:49:37;3.85;;;0.85;;
56736;SDS011;42618;51.226;4.910;2023-07-13T02:52:04;6.20;;;1.30;;
56736;SDS011;42618;51.226;4.910;2023-07-13T02:54:31;5.75;;;1.10;;
56736;SDS011;42618;51.226;4.910;2023-07-13T02:56:58;5.97;;;0.93;;
56736;SDS011;42618;51.226;4.910;2023-07-13T02:59:25;8.73;;;1.55;;
56736;SDS011;42618;51.226;4.910;2023-07-13T03:01:52;7.30;;;1.53;;
56736;SDS011;42618;51.226;4.910;2023-07-13T03:04:19;6.47;;;1.10;;
56736;SDS011;42618;51.226;4.910;2023-07-13T03:06:46;7.30;;;1.33;;
56736;SDS011;42618;51.226;4.910;2023-07-13T03:09:14;6.55;;;1.23;;
56736;SDS011;42618;51.226;4.910;2023-07-13T03:11:46;5.57;;;1.17;;
56736;SDS011;42618;51.226;4.910;2023-07-13T03:14:22;4.57;;;0.85;;
56736;SDS011;42618;51.226;4.910;2023-07-13T03:16:50;3.22;;;0.82;;
56736;SDS011;42618;51.226;4.910;2023-07-13T03:19:20;6.70;;;1.30;;
56736;SDS011;42618;51.226;4.910;2023-07-13T03:21:49;9.13;;;1.13;;
56736;SDS011;42618;51.226;4.910;2023-07-13T03:24:16;6.90;;;0.90;;
56736;SDS011;42618;51.226;4.910;2023-07-13T03:26:43;5.00;;;1.25;;
56736;SDS011;42618;51.226;4.910;2023-07-13T03:29:10;10.40;;;1.13;;
56736;SDS011;42618;51.226;4.910;2023-07-13T03:31:37;12.25;;;1.50;;
56736;SDS011;42618;51.226;4.910;2023-07-13T03:34:04;9.25;;;1.10;;
56736;SDS011;42618;51.226;4.910;2023-07-13T03:36:32;4.43;;;1.10;;
56736;SDS011;42618;51.226;4.910;2023-07-13T03:39:03;8.13;;;1.40;;
56736;SDS011;42618;51.226;4.910;2023-07-13T03:41:39;10.88;;;1.60;;
56736;SDS011;42618;51.226;4.910;2023-07-13T03:44:06;6.57;;;1.65;;
56736;SDS011;42618;51.226;4.910;2023-07-13T03:46:33;10.70;;;1.50;;
56736;SDS011;42618;51.226;4.910;2023-07-13T03:49:01;6.78;;;1.10;;
56736;SDS011;42618;51.226;4.910;2023-07-13T03:51:28;13.10;;;1.88;;
56736;SDS011;42618;51.226;4.910;2023-07-13T03:53:54;9.20;;;2.13;;
56736;SDS011;42618;51.226;4.910;2023-07-13T03:56:21;10.05;;;2.00;;
56736;SDS011;42618;51.226;4.910;2023-07-13T03:58:48;11.13;;;1.90;;
56736;SDS011;42618;51.226;4.910;2023-07-13T04:01:19;6.97;;;2.10;;
56736;SDS011;42618;51.226;4.910;2023-07-13T04:03:48;12.00;;;1.90;;
56736;SDS011;42618;51.226;4.910;2023-07-13T04:06:22;13.25;;;2.22;;
56736;SDS011;42618;51.226;4.910;2023-07-13T04:08:53;11.02;;;1.90;;
56736;SDS011;42618;51.226;4.910;2023-07-13T04:11:22;9.38;;;1.73;;
56736;SDS011;42618;51.226;4.910;2023-07-13T04:13:50;9.50;;;2.05;;
56736;SDS011;42618;51.226;4.910;2023-07-13T04:16:17;8.27;;;1.63;;
56736;SDS011;42618;51.226;4.910;2023-07-13T04:18:45;6.30;;;1.35;;
56736;SDS011;42618;51.226;4.910;2023-07-13T04:21:13;13.63;;;2.10;;
56736;SDS011;42618;51.226;4.910;2023-07-13T04:23:41;9.45;;;1.90;;
56736;SDS011;42618;51.226;4.910;2023-07-13T04:26:08;12.77;;;1.70;;
56736;SDS011;42618;51.226;4.910;2023-07-13T04:28:36;7.95;;;2.58;;
56736;SDS011;42618;51.226;4.910;2023-07-13T04:31:03;9.13;;;2.08;;
56736;SDS011;42618;51.226;4.910;2023-07-13T04:33:30;14.48;;;2.85;;
56736;SDS011;42618;51.226;4.910;2023-07-13T04:35:57;10.63;;;1.92;;
56736;SDS011;42618;51.226;4.910;2023-07-13T04:38:24;15.07;;;2.53;;
56736;SDS011;42618;51.226;4.910;2023-07-13T04:40:55;14.38;;;3.50;;
56736;SDS011;42618;51.226;4.910;2023-07-13T04:43:26;15.32;;;3.88;;
56736;SDS011;42618;51.226;4.910;2023-07-13T04:45:54;11.55;;;2.72;;
56736;SDS011;42618;51.226;4.910;2023-07-13T04:48:21;20.77;;;3.75;;
56736;SDS011;42618;51.226;4.910;2023-07-13T04:50:54;20.33;;;4.10;;
56736;SDS011;42618;51.226;4.910;2023-07-13T04:53:22;18.05;;;3.55;;
56736;SDS011;42618;51.226;4.910;2023-07-13T04:55:49;16.98;;;3.22;;
56736;SDS011;42618;51.226;4.910;2023-07-13T04:58:16;12.57;;;3.75;;
56736;SDS011;42618;51.226;4.910;2023-07-13T05:00:43;12.18;;;3.05;;
56736;SDS011;42618;51.226;4.910;2023-07-13T05:03:10;22.40;;;3.70;;
56736;SDS011;42618;51.226;4.910;2023-07-13T05:05:37;16.63;;;3.58;;
56736;SDS011;42618;51.226;4.910;2023-07-13T05:08:04;11.93;;;3.05;;
56736;SDS011;42618;51.226;4.910;2023-07-13T05:10:30;12.88;;;2.90;;
56736;SDS011;42618;51.226;4.910;2023-07-13T05:12:57;12.95;;;2.75;;
56736;SDS011;42618;51.226;4.910;2023-07-13T05:15:24;11.05;;;2.80;;
56736;SDS011;42618;51.226;4.910;2023-07-13T05:17:51;17.00;;;3.20;;
56736;SDS011;42618;51.226;4.910;2023-07-13T05:20:19;16.27;;;3.33;;
56736;SDS011;42618;51.226;4.910;2023-07-13T05:22:46;14.85;;;2.90;;
56736;SDS011;42618;51.226;4.910;2023-07-13T05:25:17;17.50;;;2.65;;
56736;SDS011;42618;51.226;4.910;2023-07-13T05:27:44;14.73;;;3.60;;
56736;SDS011;42618;51.226;4.910;2023-07-13T05:30:12;10.70;;;2.97;;
56736;SDS011;42618;51.226;4.910;2023-07-13T05:32:39;15.38;;;2.90;;
56736;SDS011;42618;51.226;4.910;2023-07-13T05:35:07;12.40;;;3.22;;
56736;SDS011;42618;51.226;4.910;2023-07-13T05:37:37;12.23;;;2.75;;
56736;SDS011;42618;51.226;4.910;2023-07-13T05:40:04;8.30;;;2.30;;
56736;SDS011;42618;51.226;4.910;2023-07-13T05:42:31;12.95;;;2.60;;
56736;SDS011;42618;51.226;4.910;2023-07-13T05:44:57;12.25;;;2.60;;
56736;SDS011;42618;51.226;4.910;2023-07-13T05:47:24;10.98;;;2.28;;
56736;SDS011;42618;51.226;4.910;2023-07-13T05:49:51;11.00;;;2.88;;
56736;SDS011;42618;51.226;4.910;2023-07-13T05:52:18;10.23;;;2.50;;
56736;SDS011;42618;51.226;4.910;2023-07-13T05:54:45;19.08;;;3.33;;
56736;SDS011;42618;51.226;4.910;2023-07-13T05:57:11;8.38;;;1.92;;
56736;SDS011;42618;51.226;4.910;2023-07-13T05:59:38;10.85;;;2.38;;
56736;SDS011;42618;51.226;4.910;2023-07-13T06:02:05;14.02;;;2.15;;
56736;SDS011;42618;51.226;4.910;2023-07-13T06:04:32;15.90;;;2.67;;
56736;SDS011;42618;51.226;4.910;2023-07-13T06:06:58;8.88;;;1.85;;
56736;SDS011;42618;51.226;4.910;2023-07-13T06:09:26;12.05;;;2.72;;
56736;SDS011;42618;51.226;4.910;2023-07-13T06:11:53;16.90;;;2.72;;
56736;SDS011;42618;51.226;4.910;2023-07-13T06:14:19;14.25;;;3.00;;
56736;SDS011;42618;51.226;4.910;2023-07-13T06:16:46;11.80;;;2.78;;
56736;SDS011;42618;51.226;4.910;2023-07-13T06:19:13;11.75;;;2.80;;
56736;SDS011;42618;51.226;4.910;2023-07-13T06:21:40;13.20;;;2.55;;
56736;SDS011;42618;51.226;4.910;2023-07-13T06:24:07;17.00;;;3.10;;
56736;SDS011;42618;51.226;4.910;2023-07-13T06:26:33;15.32;;;2.85;;
56736;SDS011;42618;51.226;4.910;2023-07-13T06:29:00;14.18;;;2.38;;
56736;SDS011;42618;51.226;4.910;2023-07-13T06:31:27;8.18;;;1.70;;
56736;SDS011;42618;51.226;4.910;2023-07-13T06:33:54;16.30;;;2.30;;
56736;SDS011;42618;51.226;4.910;2023-07-13T06:36:20;10.73;;;2.20;;
56736;SDS011;42618;51.226;4.910;2023-07-13T06:38:47;9.93;;;2.03;;
56736;SDS011;42618;51.226;4.910;2023-07-13T06:41:14;9.65;;;1.70;;
56736;SDS011;42618;51.226;4.910;2023-07-13T06:43:41;19.17;;;3.40;;
56736;SDS011;42618;51.226;4.910;2023-07-13T06:46:08;16.77;;;2.95;;
56736;SDS011;42618;51.226;4.910;2023-07-13T06:51:02;11.38;;;2.30;;
56736;SDS011;42618;51.226;4.910;2023-07-13T06:53:29;16.38;;;2.65;;
56736;SDS011;42618;51.226;4.910;2023-07-13T06:55:56;10.60;;;2.50;;
56736;SDS011;42618;51.226;4.910;2023-07-13T06:58:23;6.40;;;1.75;;
56736;SDS011;42618;51.226;4.910;2023-07-13T07:00:50;14.38;;;2.90;;
56736;SDS011;42618;51.226;4.910;2023-07-13T07:03:18;15.52;;;2.90;;
56736;SDS011;42618;51.226;4.910;2023-07-13T07:05:46;15.60;;;2.30;;
56736;SDS011;42618;51.226;4.910;2023-07-13T07:08:12;9.10;;;2.80;;
56736;SDS011;42618;51.226;4.910;2023-07-13T07:10:39;12.57;;;4.03;;
56736;SDS011;42618;51.226;4.910;2023-07-13T07:13:07;12.23;;;2.55;;
56736;SDS011;42618;51.226;4.910;2023-07-13T07:15:34;17.40;;;3.03;;
56736;SDS011;42618;51.226;4.910;2023-07-13T07:18:02;9.10;;;2.42;;
56736;SDS011;42618;51.226;4.910;2023-07-13T07:20:29;16.27;;;2.75;;
56736;SDS011;42618;51.226;4.910;2023-07-13T07:22:57;8.48;;;2.15;;
56736;SDS011;42618;51.226;4.910;2023-07-13T07:25:24;5.93;;;1.58;;
56736;SDS011;42618;51.226;4.910;2023-07-13T07:27:50;12.10;;;2.63;;
56736;SDS011;42618;51.226;4.910;2023-07-13T07:30:20;18.13;;;2.78;;
56736;SDS011;42618;51.226;4.910;2023-07-13T07:32:50;12.32;;;2.50;;
56736;SDS011;42618;51.226;4.910;2023-07-13T07:35:19;7.50;;;2.28;;
56736;SDS011;42618;51.226;4.910;2023-07-13T07:37:46;7.72;;;1.77;;
56736;SDS011;42618;51.226;4.910;2023-07-13T07:40:17;8.68;;;2.63;;
56736;SDS011;42618;51.226;4.910;2023-07-13T07:42:47;11.77;;;2.30;;
56736;SDS011;42618;51.226;4.910;2023-07-13T07:45:14;11.68;;;2.45;;
56736;SDS011;42618;51.226;4.910;2023-07-13T07:47:41;14.45;;;4.65;;
56736;SDS011;42618;51.226;4.910;2023-07-13T07:50:08;16.40;;;2.85;;
56736;SDS011;42618;51.226;4.910;2023-07-13T07:52:36;11.80;;;2.10;;
56736;SDS011;42618;51.226;4.910;2023-07-13T07:55:04;11.10;;;2.55;;
56736;SDS011;42618;51.226;4.910;2023-07-13T07:57:35;12.90;;;2.45;;
56736;SDS011;42618;51.226;4.910;2023-07-13T08:00:04;17.80;;;2.67;;
56736;SDS011;42618;51.226;4.910;2023-07-13T08:02:39;9.52;;;2.63;;
56736;SDS011;42618;51.226;4.910;2023-07-13T08:05:27;16.45;;;2.45;;
56736;SDS011;42618;51.226;4.910;2023-07-13T08:07:57;16.50;;;2.50;;
56736;SDS011;42618;51.226;4.910;2023-07-13T08:10:24;12.30;;;2.00;;
56736;SDS011;42618;51.226;4.910;2023-07-13T08:12:51;12.57;;;2.28;;
56736;SDS011;42618;51.226;4.910;2023-07-13T08:15:20;11.35;;;2.05;;
56736;SDS011;42618;51.226;4.910;2023-07-13T08:17:48;8.20;;;2.28;;
56736;SDS011;42618;51.226;4.910;2023-07-13T08:20:15;18.73;;;2.10;;
56736;SDS011;42618;51.226;4.910;2023-07-13T08:22:42;6.53;;;1.65;;
56736;SDS011;42618;51.226;4.910;2023-07-13T08:25:09;6.13;;;1.40;;
56736;SDS011;42618;51.226;4.910;2023-07-13T08:27:36;11.68;;;2.10;;
56736;SDS011;42618;51.226;4.910;2023-07-13T08:30:03;10.05;;;2.28;;
56736;SDS011;42618;51.226;4.910;2023-07-13T08:32:30;5.85;;;1.25;;
56736;SDS011;42618;51.226;4.910;2023-07-13T08:34:56;12.60;;;1.65;;
56736;SDS011;42618;51.226;4.910;2023-07-13T08:37:23;13.38;;;2.25;;
56736;SDS011;42618;51.226;4.910;2023-07-13T08:39:50;10.02;;;1.98;;
56736;SDS011;42618;51.226;4.910;2023-07-13T08:42:33;10.65;;;2.25;;
56736;SDS011;42618;51.226;4.910;2023-07-13T08:45:22;7.20;;;1.70;;
56736;SDS011;42618;51.226;4.910;2023-07-13T08:47:54;8.57;;;1.67;;
56736;SDS011;42618;51.226;4.910;2023-07-13T08:50:34;9.00;;;1.70;;
56736;SDS011;42618;51.226;4.910;2023-07-13T08:53:23;7.75;;;1.48;;
56736;SDS011;42618;51.226;4.910;2023-07-13T08:55:58;5.35;;;1.50;;
56736;SDS011;42618;51.226;4.910;2023-07-13T08:58:26;8.05;;;1.65;;
56736;SDS011;42618;51.226;4.910;2023-07-13T09:03:22;5.25;;;1.48;;
56736;SDS011;42618;51.226;4.910;2023-07-13T09:05:52;7.28;;;1.48;;
56736;SDS011;42618;51.226;4.910;2023-07-13T09:16:48;6.13;;;1.25;;
56736;SDS011;42618;51.226;4.910;2023-07-13T09:19:20;7.85;;;1.17;;
56736;SDS011;42618;51.226;4.910;2023-07-13T09:21:52;8.60;;;1.15;;
56736;SDS011;42618;51.226;4.910;2023-07-13T09:27:23;4.75;;;1.23;;
56736;SDS011;42618;51.226;4.910;2023-07-13T09:30:02;8.57;;;1.50;;
56736;SDS011;42618;51.226;4.910;2023-07-13T09:32:50;10.80;;;1.17;;
56736;SDS011;42618;51.226;4.910;2023-07-13T09:35:19;6.25;;;1.05;;
56736;SDS011;42618;51.226;4.910;2023-07-13T09:37:48;5.40;;;1.13;;
56736;SDS011;42618;51.226;4.910;2023-07-13T09:40:25;3.33;;;1.10;;
56736;SDS011;42618;51.226;4.910;2023-07-13T09:43:07;9.43;;;1.02;;
56736;SDS011;42618;51.226;4.910;2023-07-13T09:45:38;10.23;;;1.20;;
56736;SDS011;42618;51.226;4.910;2023-07-13T09:48:06;3.38;;;1.05;;
56736;SDS011;42618;51.226;4.910;2023-07-13T09:50:40;7.28;;;1.35;;
56736;SDS011;42618;51.226;4.910;2023-07-13T09:53:12;5.50;;;1.30;;
56736;SDS011;42618;51.226;4.910;2023-07-13T09:55:44;8.00;;;2.10;;
56736;SDS011;42618;51.226;4.910;2023-07-13T09:58:21;5.05;;;1.15;;
56736;SDS011;42618;51.226;4.910;2023-07-13T10:00:55;6.40;;;1.27;;
56736;SDS011;42618;51.226;4.910;2023-07-13T10:03:27;8.93;;;1.80;;
56736;SDS011;42618;51.226;4.910;2023-07-13T10:06:01;3.85;;;0.95;;
56736;SDS011;42618;51.226;4.910;2023-07-13T10:08:51;4.55;;;1.13;;
56736;SDS011;42618;51.226;4.910;2023-07-13T10:11:23;5.15;;;1.33;;
56736;SDS011;42618;51.226;4.910;2023-07-13T10:13:56;6.43;;;1.30;;
56736;SDS011;42618;51.226;4.910;2023-07-13T10:16:27;6.80;;;1.73;;
56736;SDS011;42618;51.226;4.910;2023-07-13T10:19:13;3.83;;;0.70;;
56736;SDS011;42618;51.226;4.910;2023-07-13T10:21:50;8.63;;;1.17;;
56736;SDS011;42618;51.226;4.910;2023-07-13T10:24:22;7.97;;;2.45;;
56736;SDS011;42618;51.226;4.910;2023-07-13T10:29:32;6.22;;;1.10;;
56736;SDS011;42618;51.226;4.910;2023-07-13T10:32:08;5.28;;;1.20;;
56736;SDS011;42618;51.226;4.910;2023-07-13T10:34:38;5.07;;;1.15;;
56736;SDS011;42618;51.226;4.910;2023-07-13T10:37:07;3.33;;;1.05;;
56736;SDS011;42618;51.226;4.910;2023-07-13T10:39:45;4.47;;;0.93;;
56736;SDS011;42618;51.226;4.910;2023-07-13T10:42:13;5.10;;;1.33;;
56736;SDS011;42618;51.226;4.910;2023-07-13T10:44:53;4.82;;;0.90;;
56736;SDS011;42618;51.226;4.910;2023-07-13T10:47:20;4.32;;;1.00;;
56736;SDS011;42618;51.226;4.910;2023-07-13T10:49:47;4.00;;;1.13;;
56736;SDS011;42618;51.226;4.910;2023-07-13T10:58:01;3.97;;;1.10;;
56736;SDS011;42618;51.226;4.910;2023-07-13T11:00:30;5.18;;;1.15;;
56736;SDS011;42618;51.226;4.910;2023-07-13T11:02:59;5.18;;;1.52;;
56736;SDS011;42618;51.226;4.910;2023-07-13T11:05:30;4.25;;;1.70;;
56736;SDS011;42618;51.226;4.910;2023-07-13T11:08:11;5.57;;;1.70;;
56736;SDS011;42618;51.226;4.910;2023-07-13T11:13:36;5.60;;;1.95;;
56736;SDS011;42618;51.226;4.910;2023-07-13T11:19:22;9.25;;;1.80;;
56736;SDS011;42618;51.226;4.910;2023-07-13T11:24:48;5.20;;;1.42;;
56736;SDS011;42618;51.226;4.910;2023-07-13T11:27:27;5.65;;;1.40;;
56736;SDS011;42618;51.226;4.910;2023-07-13T11:32:51;5.70;;;1.42;;
56736;SDS011;42618;51.226;4.910;2023-07-13T11:35:41;4.22;;;1.50;;
56736;SDS011;42618;51.226;4.910;2023-07-13T11:38:12;4.53;;;1.30;;
56736;SDS011;42618;51.226;4.910;2023-07-13T11:40:44;5.38;;;1.42;;
56736;SDS011;42618;51.226;4.910;2023-07-13T11:43:21;5.30;;;1.17;;
56736;SDS011;42618;51.226;4.910;2023-07-13T11:45:52;11.32;;;5.53;;
56736;SDS011;42618;51.226;4.910;2023-07-13T11:48:27;8.90;;;0.90;;
56736;SDS011;42618;51.226;4.910;2023-07-13T11:50:56;4.43;;;1.13;;
56736;SDS011;42618;51.226;4.910;2023-07-13T11:53:39;6.70;;;1.30;;
56736;SDS011;42618;51.226;4.910;2023-07-13T11:56:12;5.15;;;1.20;;
56736;SDS011;42618;51.226;4.910;2023-07-13T12:01:15;3.75;;;1.20;;
56736;SDS011;42618;51.226;4.910;2023-07-13T12:03:46;5.50;;;0.95;;
56736;SDS011;42618;51.226;4.910;2023-07-13T12:06:22;6.82;;;1.30;;
56736;SDS011;42618;51.226;4.910;2023-07-13T12:09:00;2.90;;;1.15;;
56736;SDS011;42618;51.226;4.910;2023-07-13T12:11:30;5.50;;;1.98;;
56736;SDS011;42618;51.226;4.910;2023-07-13T12:13:57;7.75;;;1.27;;
56736;SDS011;42618;51.226;4.910;2023-07-13T12:18:55;6.20;;;1.50;;
56736;SDS011;42618;51.226;4.910;2023-07-13T12:21:30;9.18;;;1.92;;
56736;SDS011;42618;51.226;4.910;2023-07-13T12:23:58;10.93;;;2.08;;
56736;SDS011;42618;51.226;4.910;2023-07-13T12:26:28;7.25;;;2.08;;
56736;SDS011;42618;51.226;4.910;2023-07-13T12:28:59;4.40;;;1.45;;
56736;SDS011;42618;51.226;4.910;2023-07-13T12:34:08;2.88;;;1.33;;
56736;SDS011;42618;51.226;4.910;2023-07-13T12:36:48;5.53;;;1.75;;
56736;SDS011;42618;51.226;4.910;2023-07-13T12:39:33;12.48;;;2.10;;
56736;SDS011;42618;51.226;4.910;2023-07-13T12:44:56;13.05;;;7.57;;
56736;SDS011;42618;51.226;4.910;2023-07-13T12:47:26;4.88;;;2.35;;
56736;SDS011;42618;51.226;4.910;2023-07-13T12:55:21;5.25;;;2.67;;
56736;SDS011;42618;51.226;4.910;2023-07-13T12:57:51;7.15;;;2.90;;
56736;SDS011;42618;51.226;4.910;2023-07-13T13:00:28;6.07;;;2.65;;
56736;SDS011;42618;51.226;4.910;2023-07-13T13:03:07;5.22;;;3.05;;
56736;SDS011;42618;51.226;4.910;2023-07-13T13:06:03;5.22;;;2.33;;
56736;SDS011;42618;51.226;4.910;2023-07-13T13:08:51;3.92;;;2.58;;
56736;SDS011;42618;51.226;4.910;2023-07-13T13:11:19;4.10;;;2.53;;
56736;SDS011;42618;51.226;4.910;2023-07-13T13:13:47;5.35;;;2.53;;
56736;SDS011;42618;51.226;4.910;2023-07-13T13:16:17;5.13;;;2.78;;
56736;SDS011;42618;51.226;4.910;2023-07-13T13:18:52;6.55;;;2.42;;
56736;SDS011;42618;51.226;4.910;2023-07-13T13:21:20;8.55;;;2.83;;
56736;SDS011;42618;51.226;4.910;2023-07-13T13:23:47;7.60;;;2.90;;
56736;SDS011;42618;51.226;4.910;2023-07-13T13:26:14;4.85;;;2.97;;
56736;SDS011;42618;51.226;4.910;2023-07-13T13:28:42;7.50;;;2.85;;
56736;SDS011;42618;51.226;4.910;2023-07-13T13:31:11;4.20;;;2.47;;
56736;SDS011;42618;51.226;4.910;2023-07-13T13:33:39;5.57;;;2.38;;
56736;SDS011;42618;51.226;4.910;2023-07-13T13:36:21;6.75;;;2.22;;
56736;SDS011;42618;51.226;4.910;2023-07-13T13:41:28;5.40;;;2.20;;
56736;SDS011;42618;51.226;4.910;2023-07-13T13:43:56;4.97;;;2.13;;
56736;SDS011;42618;51.226;4.910;2023-07-13T13:46:24;5.45;;;2.03;;
56736;SDS011;42618;51.226;4.910;2023-07-13T13:48:51;3.70;;;1.63;;
56736;SDS011;42618;51.226;4.910;2023-07-13T13:51:19;3.13;;;1.03;;
56736;SDS011;42618;51.226;4.910;2023-07-13T13:53:47;3.95;;;1.48;;
56736;SDS011;42618;51.226;4.910;2023-07-13T13:56:15;4.07;;;1.42;;
56736;SDS011;42618;51.226;4.910;2023-07-13T13:58:44;3.20;;;1.70;;
56736;SDS011;42618;51.226;4.910;2023-07-13T14:01:18;6.00;;;1.50;;
56736;SDS011;42618;51.226;4.910;2023-07-13T14:03:47;5.00;;;1.40;;
56736;SDS011;42618;51.226;4.910;2023-07-13T14:06:18;4.63;;;1.30;;
56736;SDS011;42618;51.226;4.910;2023-07-13T14:08:44;1.87;;;0.83;;
56736;SDS011;42618;51.226;4.910;2023-07-13T14:11:16;4.57;;;1.27;;
56736;SDS011;42618;51.226;4.910;2023-07-13T14:13:45;3.40;;;1.38;;
56736;SDS011;42618;51.226;4.910;2023-07-13T14:16:16;4.05;;;1.17;;
56736;SDS011;42618;51.226;4.910;2023-07-13T14:18:46;4.03;;;1.40;;
56736;SDS011;42618;51.226;4.910;2023-07-13T14:21:15;3.28;;;1.38;;
56736;SDS011;42618;51.226;4.910;2023-07-13T14:23:46;2.30;;;1.20;;
56736;SDS011;42618;51.226;4.910;2023-07-13T14:26:15;3.30;;;1.98;;
56736;SDS011;42618;51.226;4.910;2023-07-13T14:28:45;2.72;;;1.15;;
56736;SDS011;42618;51.226;4.910;2023-07-13T14:31:14;4.78;;;1.33;;
56736;SDS011;42618;51.226;4.910;2023-07-13T14:33:43;4.03;;;1.40;;
56736;SDS011;42618;51.226;4.910;2023-07-13T14:36:44;2.55;;;1.20;;
56736;SDS011;42618;51.226;4.910;2023-07-13T14:39:15;3.17;;;1.10;;
56736;SDS011;42618;51.226;4.910;2023-07-13T14:41:44;4.53;;;1.45;;
56736;SDS011;42618;51.226;4.910;2023-07-13T14:44:12;1.08;;;0.90;;
56736;SDS011;42618;51.226;4.910;2023-07-13T14:46:40;4.05;;;1.30;;
56736;SDS011;42618;51.226;4.910;2023-07-13T14:49:18;3.72;;;1.20;;
56736;SDS011;42618;51.226;4.910;2023-07-13T14:51:54;3.88;;;1.13;;
56736;SDS011;42618;51.226;4.910;2023-07-13T14:54:24;3.20;;;1.00;;
56736;SDS011;42618;51.226;4.910;2023-07-13T14:56:50;8.10;;;1.40;;
56736;SDS011;42618;51.226;4.910;2023-07-13T14:59:17;3.40;;;1.13;;
56736;SDS011;42618;51.226;4.910;2023-07-13T15:01:47;1.27;;;0.75;;
56736;SDS011;42618;51.226;4.910;2023-07-13T15:04:15;3.08;;;0.80;;
56736;SDS011;42618;51.226;4.910;2023-07-13T15:06:53;4.78;;;2.40;;
56736;SDS011;42618;51.226;4.910;2023-07-13T15:09:21;2.78;;;1.00;;
56736;SDS011;42618;51.226;4.910;2023-07-13T15:11:48;2.75;;;1.15;;
56736;SDS011;42618;51.226;4.910;2023-07-13T15:14:15;2.90;;;1.20;;
56736;SDS011;42618;51.226;4.910;2023-07-13T15:16:42;5.47;;;2.85;;
56736;SDS011;42618;51.226;4.910;2023-07-13T15:19:10;5.32;;;1.13;;
56736;SDS011;42618;51.226;4.910;2023-07-13T15:21:37;5.13;;;0.98;;
56736;SDS011;42618;51.226;4.910;2023-07-13T15:24:04;4.20;;;0.90;;
56736;SDS011;42618;51.226;4.910;2023-07-13T15:26:35;3.45;;;1.20;;
56736;SDS011;42618;51.226;4.910;2023-07-13T15:29:02;3.70;;;0.90;;
56736;SDS011;42618;51.226;4.910;2023-07-13T15:31:29;2.92;;;1.00;;
56736;SDS011;42618;51.226;4.910;2023-07-13T15:33:58;2.67;;;0.90;;
56736;SDS011;42618;51.226;4.910;2023-07-13T15:36:26;2.63;;;0.88;;
56736;SDS011;42618;51.226;4.910;2023-07-13T15:38:53;2.50;;;0.90;;
56736;SDS011;42618;51.226;4.910;2023-07-13T15:41:22;7.32;;;1.00;;
56736;SDS011;42618;51.226;4.910;2023-07-13T15:43:52;5.03;;;1.00;;
56736;SDS011;42618;51.226;4.910;2023-07-13T15:46:25;4.05;;;1.08;;
56736;SDS011;42618;51.226;4.910;2023-07-13T15:48:54;3.45;;;0.90;;
56736;SDS011;42618;51.226;4.910;2023-07-13T15:51:24;1.27;;;0.70;;
56736;SDS011;42618;51.226;4.910;2023-07-13T15:53:54;5.45;;;1.20;;
56736;SDS011;42618;51.226;4.910;2023-07-13T15:56:25;4.53;;;0.80;;
56736;SDS011;42618;51.226;4.910;2023-07-13T15:58:54;6.18;;;1.00;;
56736;SDS011;42618;51.226;4.910;2023-07-13T16:01:22;1.65;;;0.80;;
56736;SDS011;42618;51.226;4.910;2023-07-13T16:03:50;2.85;;;0.82;;